Grande Francia — ICBC — position and weather

sailwx.info

Track history (hours):
 
Tides and Currents Weather Stations Pressure Air Temp Water Temp Dewpoint Dewpoint Depression Visibility Wind Speed Wind Dir Waves Ship Positions

Grande Francia

Last reported at 2018-Feb-16 03:41 UTC. Time now 2018-Feb-24 02:45 UTC.
Position N 06°09' E 001°17'.

Length 214 m; draft 9.4 m.

Type: Ship (hazmat cat A). MMSI: 247078800.

Date/timePositionNaut miles runAvg speedWind from/ knotsBaromVisibWave heightAir tempDewpointWater temp
2018-Feb-16 03:41N 06°09' E 001°17'0 0.0
2018-Feb-16 02:38N 06°09' E 001°17'0 0.0
2018-Feb-16 02:05N 06°09' E 001°17'0 0.0
2018-Feb-16 01:47N 06°09' E 001°17'0 0.0
2018-Feb-16 01:29N 06°09' E 001°17'0 0.0
2018-Feb-16 00:44N 06°09' E 001°17'0 0.0
2018-Feb-16 00:29N 06°09' E 001°17'0 0.0
2018-Feb-15 23:32N 06°09' E 001°17'0 0.0
2018-Feb-15 23:20N 06°09' E 001°17'0 0.0
2018-Feb-15 22:59N 06°09' E 001°17'0 0.0
2018-Feb-15 21:23N 06°09' E 001°17'0 0.0
2018-Feb-15 19:56N 06°09' E 001°17'0 0.0
2018-Feb-15 19:29N 06°09' E 001°17'17 2.6
2018-Feb-15 12:59N 05°52' E 001°14'817.8
2018-Feb-15 12:30N 05°45' E 001°09'1117.6
2018-Feb-15 11:52N 05°37' E 001°02'617.6
2018-Feb-15 11:30N 05°33' E 000°57'918.1
2018-Feb-15 11:01N 05°30' E 000°48'1018.2
2018-Feb-15 10:27N 05°26' E 000°39'818.4
2018-Feb-15 10:01N 05°24' E 000°31'918.4
2018-Feb-15 09:31N 05°21' E 000°22'918.5
2018-Feb-15 09:00N 05°18' E 000°13'918.3
2018-Feb-15 08:30N 05°15' E 000°05'918.3
2018-Feb-15 08:00N 05°12' W 000°04'918.1
2018-Feb-15 07:31N 05°09' W 000°12'4917.9
2018-Feb-15 04:48N 04°51' W 000°58'  
2018-Feb-10 22:52N 09°04' W 015°45'514.6
2018-Feb-10 22:30N 09°06' W 015°50'1714.5
2018-Feb-10 21:18N 09°09' W 016°08'814.4
2018-Feb-10 20:43N 09°11' W 016°16'314.5
2018-Feb-10 20:30N 09°12' W 016°19'714.5
2018-Feb-10 20:01N 09°17' W 016°25'814.8
2018-Feb-10 19:30N 09°22' W 016°30'714.5
2018-Feb-10 19:00N 09°27' W 016°35'714.6
2018-Feb-10 18:31N 09°32' W 016°40'814.5
2018-Feb-10 17:59N 09°38' W 016°46'714.4
2018-Feb-10 17:30N 09°44' W 016°48'815.1
2018-Feb-10 17:01N 09°51' W 016°50'714.8
2018-Feb-10 16:31N 09°59' W 016°52'714.5
2018-Feb-10 16:00N 10°06' W 016°54'714.9
2018-Feb-10 15:30N 10°13' W 016°56'714.6
2018-Feb-10 15:01N 10°20' W 016°58'714.9
2018-Feb-10 14:31N 10°27' W 017°00'1114.8
2018-Feb-10 13:47N 10°37' W 017°03'  
2018-Feb-06 03:55N 38°54' W 010°21'  
Track history (hours):
 
Tides and Currents Weather Stations Pressure Air Temp Water Temp Dewpoint Dewpoint Depression Visibility Wind Speed Wind Dir Waves Ship Positions

Grande Francia

Last reported at 2018-Feb-16 03:41 UTC. Time now 2018-Feb-24 02:45 UTC.
Position N 06°09' E 001°17'.

Length 214 m; draft 9.4 m.

Type: Ship (hazmat cat A). MMSI: 247078800.

Date/timePositionNaut miles runAvg speedWind from/ knotsBaromVisibWave heightAir tempDewpointWater temp
2018-Feb-16 03:41N 06°09' E 001°17'0 0.0
2018-Feb-16 02:38N 06°09' E 001°17'0 0.0
2018-Feb-16 02:05N 06°09' E 001°17'0 0.0
2018-Feb-16 01:47N 06°09' E 001°17'0 0.0
2018-Feb-16 01:29N 06°09' E 001°17'0 0.0
2018-Feb-16 00:44N 06°09' E 001°17'0 0.0
2018-Feb-16 00:29N 06°09' E 001°17'0 0.0
2018-Feb-15 23:32N 06°09' E 001°17'0 0.0
2018-Feb-15 23:20N 06°09' E 001°17'0 0.0
2018-Feb-15 22:59N 06°09' E 001°17'0 0.0
2018-Feb-15 21:23N 06°09' E 001°17'0 0.0
2018-Feb-15 19:56N 06°09' E 001°17'0 0.0
2018-Feb-15 19:29N 06°09' E 001°17'17 2.6
2018-Feb-15 12:59N 05°52' E 001°14'817.8
2018-Feb-15 12:30N 05°45' E 001°09'1117.6
2018-Feb-15 11:52N 05°37' E 001°02'617.6
2018-Feb-15 11:30N 05°33' E 000°57'918.1
2018-Feb-15 11:01N 05°30' E 000°48'1018.2
2018-Feb-15 10:27N 05°26' E 000°39'818.4
2018-Feb-15 10:01N 05°24' E 000°31'918.4
2018-Feb-15 09:31N 05°21' E 000°22'918.5
2018-Feb-15 09:00N 05°18' E 000°13'918.3
2018-Feb-15 08:30N 05°15' E 000°05'918.3
2018-Feb-15 08:00N 05°12' W 000°04'918.1
2018-Feb-15 07:31N 05°09' W 000°12'4917.9
2018-Feb-15 04:48N 04°51' W 000°58'  
2018-Feb-10 22:52N 09°04' W 015°45'514.6
2018-Feb-10 22:30N 09°06' W 015°50'1714.5
2018-Feb-10 21:18N 09°09' W 016°08'814.4
2018-Feb-10 20:43N 09°11' W 016°16'314.5
2018-Feb-10 20:30N 09°12' W 016°19'714.5
2018-Feb-10 20:01N 09°17' W 016°25'814.8
2018-Feb-10 19:30N 09°22' W 016°30'714.5
2018-Feb-10 19:00N 09°27' W 016°35'714.6
2018-Feb-10 18:31N 09°32' W 016°40'814.5
2018-Feb-10 17:59N 09°38' W 016°46'714.4
2018-Feb-10 17:30N 09°44' W 016°48'815.1
2018-Feb-10 17:01N 09°51' W 016°50'714.8
2018-Feb-10 16:31N 09°59' W 016°52'714.5
2018-Feb-10 16:00N 10°06' W 016°54'714.9
2018-Feb-10 15:30N 10°13' W 016°56'714.6
2018-Feb-10 15:01N 10°20' W 016°58'714.9
2018-Feb-10 14:31N 10°27' W 017°00'1114.8
2018-Feb-10 13:47N 10°37' W 017°03'  
2018-Feb-06 03:55N 38°54' W 010°21'  

Dump ship's entire track history